Latest Coastal Weather Observations for Swanbourne

IDW60701

Issued at 11:33 am WST Thursday 1 September 2016 (issued every 10 minutes, with the page automatically refreshed every 10 minutes)

About coastal observations | Map of coastal stations | Coastal observations for WA | Marine services | Other Formats
Station Details ID: 009215 Name: SWANBOURNE Lat: -31.96 Lon: 115.76 Height: 40.96 m
Data from the previous 72 hours. | See also: Recent months at Swanbourne
Date/Time
WST
Temp
°C
Wind Pressure Rain since
9am
mm
Weather Cloud Vis
km
Sea
Height
m
Swell
Dir  Spd
kts
Gust
kts
hPa Trend Height
m
Period
s
Dir
01/11:30am 14.4 SSE 4 9 - - 0.0 - - - - - - -
01/11:00am 14.6 SE 4 9 - - 0.0 - - - - - - -
01/10:30am 13.7 SE 7 11 - - 0.0 - - - - - - -
01/10:00am 13.0 SSE 8 14 - - 0.0 - - - - - - -
01/09:30am 12.5 SSE 8 13 - - 0.0 - - - - - - -
01/09:00am 11.8 SE 5 8 - - 3.0 - - - - - - -
01/08:30am 10.7 SE 4 7 - - 3.0 - - - - - - -
01/08:00am 9.4 ESE 4 6 - - 3.0 - - - - - - -
01/07:30am 8.2 ESE 5 7 - - 3.0 - - - - - - -
01/07:00am 7.3 ESE 6 7 - - 2.8 - - - - - - -
01/06:30am 7.4 ESE 6 7 - - 2.8 - - - - - - -
01/06:00am 7.4 ESE 6 7 - - 2.8 - - - - - - -
01/05:30am 7.6 ESE 5 6 - - 2.8 - - - - - - -
01/05:00am 7.6 ESE 4 6 - - 2.8 - - - - - - -
01/04:30am 7.7 SE 4 5 - - 2.8 - - - - - - -
01/04:00am 7.8 ESE 5 6 - - 2.8 - - - - - - -
01/03:30am 8.4 ESE 5 7 - - 2.8 - - - - - - -
01/03:00am 8.7 SE 5 7 - - 2.8 - - - - - - -
01/02:30am 9.1 SE 4 6 - - 2.8 - - - - - - -
01/02:00am 9.1 SE 5 8 - - 2.8 - - - - - - -
01/01:30am 9.3 SSE 4 6 - - 2.8 - - - - - - -
01/01:00am 9.4 SSE 4 6 - - 2.8 - - - - - - -
01/12:30am 9.7 SSE 4 6 - - 2.8 - - - - - - -
01/12:00am 10.2 SSE 6 8 - - 2.8 - - - - - - -
 
Date/Time
WST
Temp
°C
Wind Pressure Rain since
9am
mm
Weather Cloud Vis
km
Sea
Height
m
Swell
Dir  Spd
kts
Gust
kts
hPa Trend Height
m
Period
s
Dir
31/11:30pm 10.5 SSE 5 9 - - 2.8 - - - - - - -
31/11:00pm 10.9 SSE 6 10 - - 2.8 - - - - - - -
31/10:30pm 11.5 SSE 8 13 - - 2.8 - - - - - - -
31/10:00pm 11.8 SSE 9 14 - - 2.8 - - - - - - -
31/09:30pm 12.1 SSE 7 12 - - 2.8 - - - - - - -
31/09:00pm 12.6 S 10 16 - - 2.8 - - - - - - -
31/08:30pm 12.9 S 11 17 - - 2.8 - - - - - - -
31/08:00pm 13.2 S 13 23 - - 2.8 - - - - - - -
31/07:30pm 13.4 S 13 20 - - 2.8 - - - - - - -
31/07:00pm 13.5 S 13 21 - - 2.8 - - - - - - -
31/06:30pm 13.7 SSW 11 21 - - 2.8 - - - - - - -
31/06:00pm 13.9 SSW 13 21 - - 2.8 - - - - - - -
31/05:30pm 14.5 SSW 14 21 - - 2.8 - - - - - - -
31/05:00pm 14.9 SSW 13 19 - - 2.8 - - - - - - -
31/04:30pm 15.3 SSW 14 23 - - 2.8 - - - - - - -
31/04:00pm 15.4 SSW 15 22 - - 2.8 - - - - - - -
31/03:30pm 15.4 SSW 16 23 - - 2.8 - - - - - - -
31/03:00pm 15.8 SSW 15 22 - - 2.8 - - - - - - -
31/02:30pm 15.5 SSW 17 24 - - 2.8 - - - - - - -
31/02:00pm 15.5 SSW 15 26 - - 2.8 - - - - - - -
31/01:30pm 15.2 SSW 14 21 - - 2.8 - - - - - - -
31/01:00pm 14.6 SSW 14 21 - - 2.8 - - - - - - -
31/12:30pm 14.0 S 9 16 - - 2.8 - - - - - - -
31/12:00pm 13.1 SSW 8 13 - - 2.8 - - - - - - -
31/11:30am 13.4 SSE 4 7 - - 2.8 - - - - - - -
31/11:00am 12.8 S 5 7 - - 2.8 - - - - - - -
31/10:30am 13.0 SE 6 9 - - 2.0 - - - - - - -
31/10:00am 12.7 SSE 5 8 - - 1.8 - - - - - - -
31/09:30am 13.2 SSE 5 8 - - 0.2 - - - - - - -
31/09:00am 13.3 S 5 9 - - 12.2 Recent precip. - - - - - -
31/08:30am 13.3 S 8 12 - - 11.2 - - - - - - -
31/08:00am 13.7 SSW 13 19 - - 10.4 - - - - - - -
31/07:30am 13.1 W 9 16 - - 10.0 - - - - - - -
31/07:00am 12.0 NNE 4 7 - - 9.4 - - - - - - -
31/06:30am 12.1 WNW 2 3 - - 7.6 - - - - - - -
31/06:00am 12.1 NNW 4 8 - - 7.0 Rain - - - - - -
31/05:30am 11.5 NE 6 11 - - 6.4 - - - - - - -
31/05:00am 11.8 NE 6 9 - - 6.4 - - - - - - -
31/04:30am 12.3 NE 5 7 - - 6.4 - - - - - - -
31/04:00am 12.7 NNE 5 9 - - 6.4 - - - - - - -
31/03:30am 12.7 N 5 8 - - 6.4 - - - - - - -
31/03:00am 12.6 N 6 10 - - 6.2 Recent precip. - - - - - -
31/02:30am 12.6 NNW 8 13 - - 6.2 - - - - - - -
31/02:00am 13.0 NNW 6 9 - - 5.0 - - - - - - -
31/01:30am 12.8 N 5 8 - - 1.8 - - - - - - -
31/01:00am 13.1 NNE 7 10 - - 0.4 - - - - - - -
31/12:30am 13.4 N 5 9 - - 0.0 - - - - - - -
31/12:00am 14.2 NNE 5 7 - - 0.0 - - - - - - -
 
Date/Time
WST
Temp
°C
Wind Pressure Rain since
9am
mm
Weather Cloud Vis
km
Sea
Height
m
Swell
Dir  Spd
kts
Gust
kts
hPa Trend Height
m
Period
s
Dir
30/11:30pm 14.1 NE 5 9 - - 0.0 - - - - - - -
30/11:00pm 14.4 NNE 6 9 - - 0.0 - - - - - - -
30/10:30pm 14.4 NE 4 6 - - 0.0 - - - - - - -
30/10:00pm 14.4 NNE 5 7 - - 0.0 - - - - - - -
30/09:30pm 14.4 NNE 4 7 - - 0.0 - - - - - - -
30/09:00pm 14.4 NE 3 5 - - 0.0 - - - - - - -
30/08:30pm 14.1 NE 3 4 - - 0.0 - - - - - - -
30/08:00pm 14.4 NNE 3 3 - - 0.0 - - - - - - -
30/07:30pm 14.7 N 2 2 - - 0.0 - - - - - - -
30/07:00pm 14.8 N 1 2 - - 0.0 - - - - - - -
30/06:30pm 15.0 N 2 2 - - 0.0 - - - - - - -
30/06:00pm 15.3 N 1 2 - - 0.0 - - - - - - -
30/05:30pm 15.7 NNW 2 4 - - 0.0 - - - - - - -
30/05:00pm 16.0 N 3 5 - - 0.0 - - - - - - -
30/04:30pm 16.3 NNW 3 4 - - 0.0 - - - - - - -
30/04:00pm 16.3 NNW 5 8 - - 0.0 - - - - - - -
30/03:30pm 16.4 NNW 5 8 - - 0.0 - - - - - - -
30/03:00pm 16.2 NW 7 11 - - 0.0 - - - - - - -
30/02:30pm 16.9 NW 7 9 - - 0.0 - - - - - - -
30/02:00pm 16.5 NW 8 14 - - 0.0 - - - - - - -
30/01:30pm 17.2 NNW 7 12 - - 0.0 - - - - - - -
30/01:00pm 16.4 NNW 7 11 - - 0.0 - - - - - - -
30/12:30pm 16.2 NNW 6 9 - - 0.0 - - - - - - -
30/12:00pm 16.3 NNW 6 11 - - 0.0 - - - - - - -
30/11:30am 15.4 N 5 9 - - 0.0 - - - - - - -
30/11:00am 16.0 NNE 5 8 - - 0.0 - - - - - - -
30/10:30am 15.1 NNE 5 9 - - 0.0 - - - - - - -
30/10:00am 14.4 NNE 6 9 - - 0.0 - - - - - - -
30/09:30am 12.7 NNE 6 9 - - 0.0 - - - - - - -
30/09:00am 11.9 NNE 6 9 - - 0.0 - - - - - - -
30/08:30am 11.3 ENE 5 9 - - 0.0 - - - - - - -
30/08:00am 9.2 ENE 6 10 - - 0.0 - - - - - - -
30/07:30am 8.2 ENE 7 10 - - 0.0 - - - - - - -
30/07:00am 7.2 ENE 6 8 - - 0.0 - - - - - - -
30/06:30am 7.2 ENE 6 8 - - 0.0 - - - - - - -
30/06:00am 7.5 ENE 6 8 - - 0.0 - - - - - - -
30/05:30am 7.6 E 6 8 - - 0.0 - - - - - - -
30/05:00am 7.6 ENE 6 8 - - 0.0 - - - - - - -
30/04:30am 7.4 ENE 6 8 - - 0.0 - - - - - - -
30/04:00am 7.3 ENE 6 8 - - 0.0 - - - - - - -
30/03:30am 7.5 ENE 6 7 - - 0.0 - - - - - - -
30/03:00am 7.8 ENE 6 7 - - 0.0 - - - - - - -
30/02:30am 8.1 ENE 6 7 - - 0.0 - - - - - - -
30/02:00am 8.3 ENE 6 7 - - 0.0 - - - - - - -
30/01:30am 8.7 E 5 5 - - 0.0 - - - - - - -
30/01:00am 8.7 ENE 5 5 - - 0.0 - - - - - - -
30/12:30am 9.2 E 5 6 - - 0.0 - - - - - - -
30/12:00am 9.8 E 6 6 - - 0.0 - - - - - - -
 
Date/Time
WST
Temp
°C
Wind Pressure Rain since
9am
mm
Weather Cloud Vis
km
Sea
Height
m
Swell
Dir  Spd
kts
Gust
kts
hPa Trend Height
m
Period
s
Dir
29/11:30pm 10.1 ESE 5 5 - - 0.0 - - - - - - -
29/11:00pm 10.9 SE 4 5 - - 0.0 - - - - - - -
29/10:30pm 11.2 SE 4 5 - - 0.0 - - - - - - -
29/10:00pm 11.5 SE 4 5 - - 0.0 - - - - - - -
29/09:30pm 11.6 SE 4 5 - - 0.0 - - - - - - -
29/09:00pm 11.7 SSE 5 6 - - 0.0 - - - - - - -
29/08:30pm 11.6 S 5 6 - - 0.0 - - - - - - -
29/08:00pm 11.8 S 5 7 - - 0.0 - - - - - - -
29/07:30pm 12.1 SSW 6 9 - - 0.0 - - - - - - -
29/07:00pm 12.3 SSW 6 9 - - 0.0 - - - - - - -
29/06:30pm 12.0 SSW 5 8 - - 0.0 - - - - - - -
29/06:00pm 12.7 S 7 11 - - 0.0 - - - - - - -
29/05:30pm 13.4 S 8 12 - - 0.0 - - - - - - -
29/05:00pm 14.2 SSW 7 11 - - 0.0 - - - - - - -
29/04:30pm 14.5 SSW 11 16 - - 0.0 - - - - - - -
29/04:00pm 14.8 SSW 11 15 - - 0.0 - - - - - - -
29/03:30pm 15.1 SW 11 15 - - 0.0 - - - - - - -
29/03:00pm 15.6 SW 11 15 - - 0.0 - - - - - - -
29/02:30pm 15.7 SW 8 12 - - 0.0 - - - - - - -
29/02:00pm 16.0 SW 10 13 - - 0.0 - - - - - - -
29/01:30pm 15.7 SSW 9 13 - - 0.0 - - - - - - -
29/01:00pm 16.1 SSW 7 13 - - 0.0 - - - - - - -
29/12:30pm 15.1 SSW 9 13 - - 0.0 - - - - - - -
29/12:00pm 15.0 SW 9 13 - - 0.0 - - - - - - -

Other Formats:

Comma delimited format used in spreadsheet applications
http://www.bom.gov.au/fwo/IDW60701/IDW60701.94614.axf

JavaScript Object Notation format (JSON) in row-major order
http://www.bom.gov.au/fwo/IDW60701/IDW60701.94614.json